Time;durP1;ratioP1;P1;durP2;ratioP2;P2;SDS_P1;SDS_P2;PMS_P1;PMS_P2;Temp;Humidity;BMP_temperature;BMP_pressure;BME280_temperature;BME280_humidity;BME280_pressure;Samples;Min_cycle;Max_cycle;Signal;HPM_P1;HPM_P2
2023/07/30 00:00:50;;;;;;;;;;;21.50;99.90;;;21.68;67.68;98215.75;4977718;28;123996;-83
2023/07/30 00:03:16;;;;;;;;;;;21.50;99.90;;;21.66;67.71;98226.63;4987789;28;123996;-85
2023/07/30 00:05:43;;;;;;;;;;;21.50;99.90;;;21.64;67.65;98217.78;4982275;28;109335;-84
2023/07/30 00:08:11;;;;;;;;;;;21.50;99.90;;;21.62;67.44;98227.41;4989374;28;107961;-83
2023/07/30 00:10:38;;;;;;;;;;;21.40;99.90;;;21.60;67.74;98227.03;4979540;28;125531;-84
2023/07/30 00:13:04;;;;;;;;;;;21.50;99.90;;;21.61;67.83;98222.19;4995247;28;123820;-84
2023/07/30 00:15:30;;;;;;;;;;;21.40;99.90;;;21.62;67.44;98230.22;4993470;28;109751;-84
2023/07/30 00:18:00;;;;;;;;;;;21.40;99.90;;;21.62;67.37;98218.16;4989433;28;108637;-84
2023/07/30 00:20:28;;;;;;;;;;;21.40;99.90;;;21.61;67.34;98222.19;4972560;28;124103;-82
2023/07/30 00:22:54;;;;;;;;;;;21.40;99.90;;;21.58;67.36;98223.78;4991615;28;123947;-82
2023/07/30 00:25:21;;;;;;;;;;;21.40;99.90;;;21.56;66.91;98226.19;4987983;28;109367;-83
2023/07/30 00:27:47;;;;;;;;;;;21.30;99.90;;;21.55;66.85;98224.59;4961089;28;107284;-83
2023/07/30 00:30:15;;;;;;;;;;;21.30;99.90;;;21.52;66.71;98236.66;4980317;28;124567;-84
2023/07/30 00:32:43;;;;;;;;;;;21.30;99.90;;;21.52;66.67;98244.25;4998732;28;123618;-83
2023/07/30 00:35:10;;;;;;;;;;;21.30;99.90;;;21.47;66.39;98244.66;4988805;28;110390;-84
2023/07/30 00:37:39;;;;;;;;;;;21.30;99.90;;;21.42;66.21;98236.63;4979767;28;110039;-83
2023/07/30 00:40:06;;;;;;;;;;;21.20;99.90;;;21.35;66.12;98257.06;4987141;28;124862;-83
2023/07/30 00:42:35;;;;;;;;;;;21.20;99.90;;;21.29;65.75;98253.03;4975188;28;123419;-83
2023/07/30 00:45:04;;;;;;;;;;;21.10;99.90;;;21.23;65.95;98249.00;4992168;28;109397;-83
2023/07/30 00:47:40;;;;;;;;;;;21.10;99.90;;;21.17;65.90;98255.00;4976734;28;108948;-84
2023/07/30 00:50:08;;;;;;;;;;;21.10;99.90;;;21.12;66.08;98249.78;4995658;28;123645;-84
2023/07/30 00:52:42;;;;;;;;;;;21.00;99.90;;;21.08;66.50;98251.75;4970416;28;122852;-85
2023/07/30 00:55:09;;;;;;;;;;;20.90;99.90;;;21.06;66.53;98253.34;5003769;28;108393;-85
2023/07/30 00:57:42;;;;;;;;;;;20.90;99.90;;;21.06;66.46;98253.34;4980654;28;108317;-85
2023/07/30 01:00:09;;;;;;;;;;;20.90;99.90;;;21.05;66.74;98251.75;4987914;28;124348;-85
2023/07/30 01:02:42;;;;;;;;;;;20.90;99.90;;;21.07;67.25;98252.97;4995884;28;123590;-85
2023/07/30 01:05:08;;;;;;;;;;;20.90;99.90;;;21.09;66.74;98261.81;4989704;28;109277;-84
2023/07/30 01:07:35;;;;;;;;;;;20.90;99.90;;;21.10;67.17;98271.03;4989809;28;108713;-85
2023/07/30 01:10:03;;;;;;;;;;;20.90;99.90;;;21.10;67.10;98274.63;4998104;28;124243;-85
2023/07/30 01:12:31;;;;;;;;;;;20.90;99.90;;;21.11;67.57;98262.19;5002465;28;123788;-84
2023/07/30 01:14:58;;;;;;;;;;;20.90;99.90;;;21.10;67.29;98260.59;4974340;28;109350;-85
2023/07/30 01:17:27;;;;;;;;;;;20.90;99.90;;;21.09;67.81;98253.38;4982465;28;108668;-85
2023/07/30 01:19:54;;;;;;;;;;;20.90;99.90;;;21.06;67.70;98254.16;4971047;28;124101;-85
2023/07/30 01:22:22;;;;;;;;;;;20.70;99.90;;;21.05;67.92;98263.78;4982638;28;124002;-84
2023/07/30 01:24:51;;;;;;;;;;;20.80;99.90;;;21.08;68.27;98270.63;4980672;28;109345;-85
2023/07/30 01:27:31;;;;;;;;;;;20.80;99.90;;;21.07;68.17;98278.25;4993707;28;109603;-85
2023/07/30 01:30:03;;;;;;;;;;;20.90;99.90;;;21.07;68.40;98269.81;4983101;28;124087;-84
2023/07/30 01:32:30;;;;;;;;;;;20.80;99.90;;;21.08;68.74;98263.00;4977329;28;124443;-84
2023/07/30 01:35:03;;;;;;;;;;;20.80;99.90;;;21.08;68.84;98271.41;4988562;28;109517;-84
2023/07/30 01:37:29;;;;;;;;;;;20.80;99.90;;;21.10;68.68;98271.03;4995822;28;109009;-85
2023/07/30 01:39:56;;;;;;;;;;;20.80;99.90;;;21.10;68.75;98274.63;4978890;28;124301;-84
2023/07/30 01:42:28;;;;;;;;;;;20.80;99.90;;;21.12;69.40;98280.69;4962001;28;122970;-85
2023/07/30 01:44:54;;;;;;;;;;;20.90;99.90;;;21.13;69.10;98271.03;4987988;28;109575;-85
2023/07/30 01:47:21;;;;;;;;;;;20.90;99.90;;;21.15;69.43;98281.88;4987798;28;107820;-83
2023/07/30 01:49:53;;;;;;;;;;;20.90;99.90;;;21.15;69.09;98281.88;4981558;28;124218;-84
2023/07/30 01:52:19;;;;;;;;;;;20.90;99.90;;;21.17;69.30;98290.72;4973902;28;123204;-84
2023/07/30 01:54:45;;;;;;;;;;;20.90;99.90;;;21.21;69.61;98288.72;4990255;28;109260;-84
2023/07/30 01:57:15;;;;;;;;;;;20.90;99.90;;;21.23;69.23;98293.97;4999777;28;108752;-84
2023/07/30 01:59:44;;;;;;;;;;;20.90;99.90;;;21.24;69.29;98284.31;4982683;28;124154;-85
2023/07/30 02:02:10;;;;;;;;;;;20.90;99.90;;;21.25;69.25;98291.53;4975233;28;124095;-84
2023/07/30 02:04:39;;;;;;;;;;;20.90;99.90;;;21.25;69.40;98283.94;4988813;28;109343;-85
2023/07/30 02:07:05;;;;;;;;;;;20.90;99.90;;;21.27;69.24;98275.88;4996406;28;108656;-84
2023/07/30 02:09:31;;;;;;;;;;;21.00;99.90;;;21.28;69.02;98280.31;4993911;28;124210;-85
2023/07/30 02:11:58;;;;;;;;;;;21.00;99.90;;;21.26;69.08;98288.34;4991163;28;123856;-85
2023/07/30 02:14:30;;;;;;;;;;;21.00;99.90;;;21.26;69.21;98277.09;4991184;28;110510;-85
2023/07/30 02:16:56;;;;;;;;;;;21.00;99.90;;;21.26;69.03;98273.50;4980803;28;109726;-84
2023/07/30 02:19:22;;;;;;;;;;;21.00;99.90;;;21.26;69.19;98273.50;4972449;28;123151;-85
2023/07/30 02:21:51;;;;;;;;;;;21.00;99.90;;;21.26;69.06;98268.69;4970447;28;124632;-85
2023/07/30 02:24:17;;;;;;;;;;;21.00;99.90;;;21.29;69.23;98276.31;4971006;28;109354;-85
2023/07/30 02:26:44;;;;;;;;;;;21.00;99.90;;;21.29;69.13;98273.50;4973396;28;108711;-85
2023/07/30 02:29:10;;;;;;;;;;;21.00;99.90;;;21.30;69.00;98275.09;4980139;28;124369;-85
2023/07/30 02:31:36;;;;;;;;;;;21.00;99.90;;;21.31;68.90;98282.34;4989596;28;124334;-84
2023/07/30 02:34:08;;;;;;;;;;;21.00;99.90;;;21.33;69.01;98287.53;4978735;28;109384;-84
2023/07/30 02:36:35;;;;;;;;;;;21.00;99.90;;;21.32;68.87;98295.19;4976973;28;108896;-85
2023/07/30 02:39:02;;;;;;;;;;;21.00;99.90;;;21.29;69.30;98290.34;4977127;28;125129;-84
2023/07/30 02:41:37;;;;;;;;;;;21.00;99.90;;;21.28;69.17;98287.94;4991559;28;124101;-85
2023/07/30 02:44:11;;;;;;;;;;;22.90;99.90;;;21.27;69.26;98298.38;4979056;28;109649;-85
2023/07/30 02:46:39;;;;;;;;;;;21.00;99.90;;;21.24;69.29;98298.38;4997968;28;108562;-85
2023/07/30 02:49:08;;;;;;;;;;;20.90;99.90;;;21.22;69.55;98298.75;4986225;28;124295;-85
2023/07/30 02:51:34;;;;;;;;;;;20.90;99.90;;;21.23;69.21;98296.78;4976229;28;123446;-85
2023/07/30 02:54:09;;;;;;;;;;;21.00;99.90;;;21.22;69.28;98295.94;4986431;28;109068;-85
2023/07/30 02:56:35;;;;;;;;;;;20.90;99.90;;;21.22;69.50;98289.53;4998999;28;108779;-85
2023/07/30 02:59:01;;;;;;;;;;;20.90;99.90;;;21.21;69.51;98283.09;4990311;28;124492;-84
2023/07/30 03:01:28;;;;;;;;;;;20.90;99.90;;;21.22;69.23;98287.50;4977313;28;123275;-85
2023/07/30 03:03:56;;;;;;;;;;;20.90;99.90;;;21.21;69.18;98294.34;4983439;28;109324;-84
2023/07/30 03:06:23;;;;;;;;;;;20.90;99.90;;;21.21;69.23;98290.75;5001448;28;109613;-84
2023/07/30 03:08:49;;;;;;;;;;;20.90;99.90;;;21.18;69.68;98292.34;4991541;28;124259;-85
2023/07/30 03:11:20;;;;;;;;;;;20.90;99.90;;;21.15;69.41;98296.75;5002176;28;124850;-84
2023/07/30 03:13:46;;;;;;;;;;;20.90;99.90;;;21.14;69.55;98295.13;5002627;28;109008;-84
2023/07/30 03:16:13;;;;;;;;;;;20.90;99.90;;;21.14;69.50;98300.75;5000808;28;108781;-85
2023/07/30 03:18:39;;;;;;;;;;;20.90;99.90;;;21.13;69.37;98304.75;4989887;28;123906;-85
2023/07/30 03:21:11;;;;;;;;;;;20.90;99.90;;;21.08;69.52;98296.69;4987007;28;123973;-85
2023/07/30 03:23:38;;;;;;;;;;;20.80;99.90;;;21.05;69.63;98299.50;4982835;28;108942;-85
2023/07/30 03:26:12;;;;;;;;;;;20.80;99.90;;;21.02;69.62;98298.28;4989565;28;108059;-85
2023/07/30 03:28:38;;;;;;;;;;;20.80;99.90;;;21.01;69.65;98295.84;4989543;28;124388;-85
2023/07/30 03:31:04;;;;;;;;;;;20.80;99.90;;;21.01;69.61;98301.47;4989001;28;124094;-85
2023/07/30 03:33:34;;;;;;;;;;;20.80;99.90;;;21.03;69.85;98304.69;4983986;28;110587;-85
2023/07/30 03:36:02;;;;;;;;;;;20.80;99.90;;;21.03;69.50;98293.47;4986393;28;108972;-84
2023/07/30 03:38:29;;;;;;;;;;;20.80;99.90;;;21.06;69.93;98303.91;4979431;28;124080;-85
2023/07/30 03:40:57;;;;;;;;;;;20.80;99.90;;;21.07;69.94;98303.53;4981740;28;124027;-85
2023/07/30 03:43:25;;;;;;;;;;;20.80;99.90;;;21.08;69.83;98307.94;4991938;28;103398;-85
2023/07/30 03:45:51;;;;;;;;;;;20.80;99.90;;;21.08;69.71;98305.13;4985910;28;108755;-85
2023/07/30 03:48:23;;;;;;;;;;;20.80;99.90;;;21.08;69.12;98310.75;4981702;28;124211;-84
2023/07/30 03:50:50;;;;;;;;;;;20.80;99.90;;;21.06;69.54;98315.16;4972724;28;124059;-84
2023/07/30 03:53:16;;;;;;;;;;;20.80;99.90;;;21.07;69.67;98311.97;4965018;28;109670;-85
2023/07/30 03:55:45;;;;;;;;;;;20.80;99.90;;;21.07;69.22;98322.41;4976540;28;108602;-85
2023/07/30 03:58:12;;;;;;;;;;;20.80;99.90;;;21.05;69.48;98331.19;4978038;28;124216;-85
2023/07/30 04:00:38;;;;;;;;;;;20.80;99.90;;;21.00;69.47;98323.16;4964925;28;122902;-84
2023/07/30 04:03:09;;;;;;;;;;;20.70;99.90;;;20.98;69.36;98321.94;4980836;28;109358;-84
2023/07/30 04:05:35;;;;;;;;;;;20.80;99.90;;;20.93;69.77;98334.38;4994767;28;108866;-84
2023/07/30 04:08:02;;;;;;;;;;;20.70;99.90;;;20.92;69.55;98327.13;4973474;28;124097;-84
2023/07/30 04:10:28;;;;;;;;;;;20.70;99.90;;;20.91;69.94;98331.13;4994467;28;124482;-84
2023/07/30 04:12:57;;;;;;;;;;;20.70;99.90;;;20.91;69.84;98320.72;4988766;28;112102;-85
2023/07/30 04:15:26;;;;;;;;;;;20.70;99.90;;;20.93;69.72;98318.31;4990195;28;108729;-84
2023/07/30 04:17:53;;;;;;;;;;;21.70;99.90;;;20.96;69.74;98322.34;4975257;28;123853;-84
2023/07/30 04:20:21;;;;;;;;;;;20.70;99.90;;;20.99;69.90;98321.56;4973439;28;124181;-84
2023/07/30 04:22:47;;;;;;;;;;;20.70;99.90;;;21.01;69.98;98327.59;4985952;28;108103;-84
2023/07/30 04:25:13;;;;;;;;;;;20.70;99.90;;;21.04;70.08;98337.22;4970809;28;108641;-84
2023/07/30 04:27:40;;;;;;;;;;;20.70;99.90;;;21.06;69.69;98349.66;4970809;28;124223;-84
2023/07/30 04:30:10;;;;;;;;;;;20.80;99.90;;;21.07;69.93;98347.66;4983541;28;123832;-84
2023/07/30 04:32:36;;;;;;;;;;;20.80;99.90;;;21.07;69.70;98353.28;4975803;28;109081;-84
2023/07/30 04:35:03;;;;;;;;;;;20.80;99.90;;;21.08;69.58;98361.31;4967368;28;107700;-83
2023/07/30 04:37:29;;;;;;;;;;;20.80;99.90;;;21.10;70.25;98361.72;4989998;28;124425;-84
2023/07/30 04:39:57;;;;;;;;;;;20.80;99.90;;;21.11;69.75;98357.72;4962395;28;122777;-83
2023/07/30 04:42:26;;;;;;;;;;;20.80;99.90;;;21.11;69.77;98362.53;4982565;28;113900;-82
2023/07/30 04:44:52;;;;;;;;;;;20.80;99.90;;;21.12;69.79;98359.34;4976475;28;108659;-83
2023/07/30 04:47:21;;;;;;;;;;;20.80;99.90;;;21.12;70.04;98353.72;4976709;28;123998;-83
2023/07/30 04:49:48;;;;;;;;;;;20.80;99.90;;;21.12;69.90;98353.72;4959153;28;123939;-83
2023/07/30 04:52:16;;;;;;;;;;;20.80;99.90;;;21.14;69.50;98354.13;4982743;28;108546;-83
2023/07/30 04:54:45;;;;;;;;;;;20.80;99.90;;;21.15;69.52;98352.94;4988869;28;108081;-83
2023/07/30 04:57:11;;;;;;;;;;;20.80;99.90;;;21.14;69.68;98356.94;4973710;28;124334;-83
2023/07/30 04:59:38;;;;;;;;;;;20.80;99.90;;;21.16;69.37;98362.16;4976894;28;123822;-84
2023/07/30 05:02:04;;;;;;;;;;;20.80;99.90;;;21.17;69.27;98364.59;4983435;28;109068;-83
2023/07/30 05:04:33;;;;;;;;;;;20.90;99.90;;;21.16;69.35;98364.97;4974895;28;107537;-84
2023/07/30 05:07:04;;;;;;;;;;;20.80;99.90;;;21.16;69.19;98371.38;4972317;28;124568;-83
2023/07/30 05:09:36;;;;;;;;;;;20.90;99.90;;;21.17;69.54;98367.38;4981623;28;123617;-83
2023/07/30 05:12:06;;;;;;;;;;;20.90;99.90;;;21.18;69.51;98379.44;4997351;28;109169;-84
2023/07/30 05:14:32;;;;;;;;;;;20.90;99.90;;;21.19;69.24;98387.44;4986050;28;108006;-84
2023/07/30 05:17:01;;;;;;;;;;;20.90;99.90;;;21.20;69.43;98393.91;4989682;28;124195;-84
2023/07/30 05:19:29;;;;;;;;;;;20.90;99.90;;;21.18;69.57;98390.66;4979291;28;124044;-83
2023/07/30 05:21:59;;;;;;;;;;;20.90;99.90;;;21.16;69.42;98388.25;4984650;28;109207;-83
2023/07/30 05:24:25;;;;;;;;;;;20.90;99.90;;;21.12;69.54;98398.66;4987054;28;108609;-84
2023/07/30 05:26:53;;;;;;;;;;;20.80;99.90;;;21.09;69.61;98399.47;4976348;28;124154;-83
2023/07/30 05:29:22;;;;;;;;;;;20.80;99.90;;;21.08;69.78;98386.59;4988494;28;123952;-84
2023/07/30 05:31:48;;;;;;;;;;;20.80;99.90;;;21.06;69.46;98388.97;4987201;28;109470;-83
2023/07/30 05:34:17;;;;;;;;;;;20.80;99.90;;;21.04;69.51;98391.41;5003794;28;107944;-84
2023/07/30 05:36:43;;;;;;;;;;;20.80;99.90;;;21.06;69.95;98388.97;4982347;28;124126;-84
2023/07/30 05:39:12;;;;;;;;;;;20.80;99.90;;;21.09;69.48;98391.03;4985902;28;123898;-83
2023/07/30 05:41:38;;;;;;;;;;;20.80;99.90;;;21.10;69.75;98392.63;4992556;28;109105;-83
2023/07/30 05:44:05;;;;;;;;;;;20.80;99.90;;;21.13;69.67;98400.28;4990801;28;107775;-84
2023/07/30 05:46:31;;;;;;;;;;;20.80;99.90;;;21.15;69.63;98389.44;5005524;28;124388;-83
2023/07/30 05:49:03;;;;;;;;;;;20.80;99.90;;;21.15;69.78;98391.47;4994047;28;123717;-83
2023/07/30 05:51:29;;;;;;;;;;;20.80;99.90;;;21.14;69.80;98390.66;4983892;28;109233;-83
2023/07/30 05:53:55;;;;;;;;;;;20.80;99.90;;;21.11;69.61;98399.84;4989802;28;108670;-84
2023/07/30 05:56:27;;;;;;;;;;;20.80;99.90;;;21.09;69.42;98393.84;4982670;28;124160;-83
2023/07/30 05:58:54;;;;;;;;;;;20.80;99.90;;;21.07;69.57;98387.00;4972939;28;123758;-83
2023/07/30 06:01:20;;;;;;;;;;;20.80;99.90;;;21.09;69.79;98390.19;4972831;28;109406;-83
2023/07/30 06:03:49;;;;;;;;;;;20.80;99.90;;;21.13;69.62;98383.41;4987116;28;108578;-83
2023/07/30 06:06:15;;;;;;;;;;;20.80;99.90;;;21.18;69.60;98385.06;4992342;28;124284;-83
2023/07/30 06:08:44;;;;;;;;;;;20.90;99.90;;;21.23;69.83;98378.25;4991227;28;123656;-83
2023/07/30 06:11:13;;;;;;;;;;;20.90;99.90;;;21.28;69.72;98377.84;5001426;28;109663;-83
2023/07/30 06:13:42;;;;;;;;;;;20.90;99.90;;;21.31;69.79;98383.50;4982216;28;108199;-83
2023/07/30 06:16:08;;;;;;;;;;;20.90;99.90;;;21.35;69.78;98383.50;4984224;28;124365;-83
2023/07/30 06:18:40;;;;;;;;;;;21.00;99.90;;;21.38;70.07;98383.56;4976795;28;123861;-85
2023/07/30 06:21:06;;;;;;;;;;;21.00;99.90;;;21.40;69.93;98398.03;4958248;28;109453;-83
2023/07/30 06:23:32;;;;;;;;;;;21.00;99.90;;;21.41;70.04;98390.38;4969189;28;109538;-81
2023/07/30 06:26:04;;;;;;;;;;;21.10;99.90;;;21.43;69.94;98390.00;4981838;28;124712;-82
2023/07/30 06:28:30;;;;;;;;;;;21.10;99.90;;;21.45;69.67;98393.22;4980836;28;124160;-82
2023/07/30 06:31:02;;;;;;;;;;;21.10;99.90;;;21.47;69.53;98383.22;4974930;28;109131;-82
2023/07/30 06:33:28;;;;;;;;;;;21.20;99.90;;;21.51;69.76;98375.56;4970904;28;108943;-82
2023/07/30 06:35:54;;;;;;;;;;;21.20;99.90;;;21.55;69.61;98369.97;4971341;28;124122;-82
2023/07/30 06:38:21;;;;;;;;;;;21.20;99.90;;;21.61;69.65;98383.25;4958147;28;123947;-82
2023/07/30 06:40:53;;;;;;;;;;;21.20;99.90;;;21.72;69.66;98377.66;4977929;28;109092;-82
2023/07/30 06:43:19;;;;;;;;;;;21.30;99.90;;;21.84;69.27;98399.78;4966239;28;107994;-82
2023/07/30 06:45:45;;;;;;;;;;;21.30;99.90;;;21.94;68.96;98409.44;4979047;28;124381;-82
2023/07/30 06:48:15;;;;;;;;;;;21.40;99.90;;;21.99;68.59;98414.69;4970509;28;124059;-82
2023/07/30 06:50:41;;;;;;;;;;;21.50;99.90;;;22.01;68.74;98420.72;4976801;28;109671;-83
2023/07/30 06:53:08;;;;;;;;;;;21.50;99.90;;;22.03;68.93;98407.06;4982691;28;109018;-82
2023/07/30 06:55:42;;;;;;;;;;;21.60;99.90;;;22.08;68.40;98410.69;4986128;28;124718;-83
2023/07/30 06:58:08;;;;;;;;;;;21.60;99.90;;;22.11;68.47;98407.06;4974380;28;123057;-83
2023/07/30 07:00:37;;;;;;;;;;;21.70;99.90;;;22.11;67.77;98412.69;4976222;28;109161;-83
2023/07/30 07:03:05;;;;;;;;;;;21.70;99.90;;;22.08;68.24;98413.50;4977392;28;108697;-83
2023/07/30 07:05:39;;;;;;;;;;;21.70;99.90;;;22.07;67.99;98418.31;4980164;28;124803;-83
2023/07/30 07:08:05;;;;;;;;;;;21.70;99.90;;;22.07;68.16;98412.69;4987948;28;124014;-83
2023/07/30 07:10:31;;;;;;;;;;;21.70;99.90;;;22.08;68.06;98417.09;4976425;28;110429;-83
2023/07/30 07:12:58;;;;;;;;;;;21.70;99.90;;;22.12;67.96;98414.31;4984967;28;109922;-83
2023/07/30 07:15:27;;;;;;;;;;;21.70;99.90;;;22.14;67.98;98423.97;4992355;28;124748;-83
2023/07/30 07:17:53;;;;;;;;;;;21.80;99.90;;;22.17;67.96;98425.97;4971755;28;123006;-83
2023/07/30 07:20:20;;;;;;;;;;;21.80;99.90;;;22.18;67.54;98430.44;4989066;28;109945;-84
2023/07/30 07:22:49;;;;;;;;;;;21.80;99.90;;;22.18;67.60;98427.63;4972283;28;108901;-83
2023/07/30 07:25:18;;;;;;;;;;;21.80;99.90;;;22.20;67.32;98430.03;4996790;28;122513;-82
2023/07/30 07:27:45;;;;;;;;;;;21.80;99.90;;;22.18;67.16;98435.22;4985849;28;123973;-83
2023/07/30 07:30:14;;;;;;;;;;;21.80;99.90;;;22.13;67.22;98441.25;4985257;28;109223;-83
2023/07/30 07:32:40;;;;;;;;;;;21.80;99.90;;;22.05;67.44;98454.47;4983693;28;108331;-84
2023/07/30 07:35:07;;;;;;;;;;;21.70;99.90;;;22.01;67.63;98467.75;4977151;28;124034;-83
2023/07/30 07:37:37;;;;;;;;;;;21.70;99.90;;;21.94;67.46;98485.41;4979333;28;124111;-83
2023/07/30 07:40:04;;;;;;;;;;;21.60;99.90;;;21.86;67.82;98482.97;4975590;28;109395;-84
2023/07/30 07:42:30;;;;;;;;;;;21.60;99.90;;;21.72;68.26;98469.66;4985794;28;108442;-84
2023/07/30 07:44:56;;;;;;;;;;;21.50;99.90;;;21.59;68.54;98467.16;4971835;28;124187;-83
2023/07/30 07:47:25;;;;;;;;;;;21.40;99.90;;;21.52;68.08;98464.34;4976203;28;124434;-84
2023/07/30 07:49:52;;;;;;;;;;;21.40;99.90;;;21.46;68.05;98468.72;4982254;28;108121;-83
2023/07/30 07:52:19;;;;;;;;;;;21.30;99.90;;;21.45;67.79;98469.13;4981997;28;109350;-83
2023/07/30 07:54:45;;;;;;;;;;;21.30;99.90;;;21.45;67.57;98472.75;4978577;28;124378;-83
2023/07/30 07:57:13;;;;;;;;;;;21.30;99.90;;;21.44;67.11;98476.75;4983055;28;122856;-84
2023/07/30 07:59:41;;;;;;;;;;;21.20;99.90;;;21.45;67.21;98469.91;4980690;28;110305;-84
2023/07/30 08:02:07;;;;;;;;;;;21.30;99.90;;;21.48;67.22;98465.53;4989962;28;109749;-84
2023/07/30 08:04:34;;;;;;;;;;;21.20;99.90;;;21.52;67.31;98467.16;4988042;28;124671;-84
2023/07/30 08:07:03;;;;;;;;;;;21.30;99.90;;;21.57;67.10;98463.97;4975307;28;124693;-83
2023/07/30 08:09:30;;;;;;;;;;;21.30;99.90;;;21.65;67.04;98464.00;4987819;28;108345;-83
2023/07/30 08:11:56;;;;;;;;;;;21.30;99.90;;;21.73;66.91;98476.88;4989228;28;109298;-83
2023/07/30 08:14:25;;;;;;;;;;;21.40;99.90;;;21.78;66.86;98479.31;4981640;28;123780;-84
2023/07/30 08:16:52;;;;;;;;;;;21.40;99.90;;;21.82;66.92;98472.50;4972968;28;124032;-83
2023/07/30 08:19:18;;;;;;;;;;;21.50;99.90;;;21.89;67.21;98468.09;4972323;28;109346;-84
2023/07/30 08:21:52;;;;;;;;;;;21.50;99.90;;;21.95;66.90;98470.16;4962727;28;107758;-83
2023/07/30 08:24:18;;;;;;;;;;;21.60;99.90;;;22.02;66.66;98472.97;4976408;28;123986;-80
2023/07/30 08:26:46;;;;;;;;;;;21.60;99.90;;;22.08;66.85;98476.19;4962860;28;126026;-82
2023/07/30 08:29:14;;;;;;;;;;;21.70;99.90;;;22.16;66.55;98471.41;4979068;28;108823;-82
2023/07/30 08:31:43;;;;;;;;;;;21.70;99.90;;;22.24;66.29;98453.34;4972488;28;109114;-81
2023/07/30 08:34:17;;;;;;;;;;;21.80;99.90;;;22.34;66.00;98466.63;4972330;28;123307;-82
2023/07/30 08:36:43;;;;;;;;;;;21.90;99.90;;;22.37;64.83;98465.84;4975584;28;124219;-82
2023/07/30 08:39:09;;;;;;;;;;;21.90;99.90;;;22.39;64.44;98471.09;4979219;28;108254;-81
2023/07/30 08:41:38;;;;;;;;;;;21.90;99.90;;;22.40;64.35;98456.59;4978290;28;108753;-81
2023/07/30 08:44:05;;;;;;;;;;;21.90;99.90;;;22.41;63.81;98458.22;4977662;28;124298;-83
2023/07/30 08:46:31;;;;;;;;;;;22.00;99.90;;;22.42;63.20;98459.03;4974231;28;123797;-81
2023/07/30 08:48:57;;;;;;;;;;;22.00;99.90;;;22.45;63.46;98464.63;4969535;28;110323;-81
2023/07/30 08:51:27;;;;;;;;;;;22.00;99.90;;;22.53;63.69;98467.47;4960427;28;107916;-83
2023/07/30 08:54:00;;;;;;;;;;;22.10;99.90;;;22.59;63.29;98454.59;4970052;28;124230;-81
2023/07/30 08:56:27;;;;;;;;;;;22.20;99.90;;;22.65;63.22;98453.00;4961064;28;121892;-81
2023/07/30 08:58:59;;;;;;;;;;;22.20;99.90;;;22.72;62.79;98475.53;4978304;28;109447;-81
2023/07/30 09:01:37;;;;;;;;;;;22.30;99.90;;;22.78;62.49;98473.91;4976139;28;108955;-81
2023/07/30 09:04:09;;;;;;;;;;;22.30;99.90;;;22.81;62.10;98467.50;4977227;28;124266;-81
2023/07/30 09:06:38;;;;;;;;;;;22.40;99.90;;;22.79;61.73;98481.16;4980520;28;123263;-81
2023/07/30 09:09:05;;;;;;;;;;;22.40;99.90;;;22.80;61.68;98471.50;4982916;28;108625;-81
2023/07/30 09:11:36;;;;;;;;;;;22.40;99.90;;;22.84;61.25;98477.94;4975465;28;108832;-81
2023/07/30 09:14:02;;;;;;;;;;;22.50;99.90;;;22.89;61.36;98485.19;4985781;28;123882;-81
2023/07/30 09:16:29;;;;;;;;;;;22.50;99.90;;;22.92;60.49;98484.41;4975686;28;123827;-81
2023/07/30 09:18:58;;;;;;;;;;;22.50;99.50;;;22.93;60.43;98481.16;4971481;28;109845;-82
2023/07/30 09:21:34;;;;;;;;;;;22.50;99.40;;;22.96;59.72;98487.19;4973839;28;108815;-82
2023/07/30 09:24:05;;;;;;;;;;;22.60;99.00;;;22.98;59.15;98493.28;4975916;28;123930;-81
2023/07/30 09:26:45;;;;;;;;;;;22.60;98.70;;;22.92;58.96;98499.28;4985748;28;123859;-82
2023/07/30 09:29:19;;;;;;;;;;;22.60;98.40;;;22.90;58.54;98500.88;4974211;28;108488;-81
2023/07/30 09:31:55;;;;;;;;;;;22.50;98.10;;;22.86;58.83;98486.81;4980160;28;108807;-82
2023/07/30 09:34:23;;;;;;;;;;;22.50;98.10;;;22.87;58.75;98494.03;4990262;28;124213;-82
2023/07/30 09:36:54;;;;;;;;;;;22.50;98.10;;;22.83;58.26;98493.22;4987860;28;123898;-81
2023/07/30 09:39:30;;;;;;;;;;;22.50;97.80;;;22.81;58.44;98495.66;4981334;28;110359;-82
2023/07/30 09:42:06;;;;;;;;;;;22.50;97.80;;;22.79;58.43;98492.44;4976079;28;108943;-82
2023/07/30 09:44:35;;;;;;;;;;;22.50;97.70;;;22.76;58.25;98496.06;4989111;28;123203;-81
2023/07/30 09:47:12;;;;;;;;;;;22.40;97.60;;;22.72;58.47;98504.50;4995543;28;125815;-82
2023/07/30 09:49:40;;;;;;;;;;;22.40;97.70;;;22.71;58.22;98504.91;4990663;28;109587;-82
2023/07/30 09:52:07;;;;;;;;;;;22.40;97.60;;;22.70;58.33;98503.28;4983151;28;108436;-82
2023/07/30 09:54:33;;;;;;;;;;;22.30;97.50;;;22.69;58.07;98498.88;4982189;28;124379;-81
2023/07/30 09:56:59;;;;;;;;;;;22.30;97.50;;;22.70;58.26;98503.28;5002574;28;124150;-82
2023/07/30 09:59:31;;;;;;;;;;;22.40;97.60;;;22.72;58.09;98504.50;4989120;28;109526;-81
2023/07/30 10:01:58;;;;;;;;;;;22.40;97.50;;;22.75;57.79;98508.53;4986865;28;108715;-82
2023/07/30 10:04:24;;;;;;;;;;;22.40;97.40;;;22.79;57.68;98509.34;4994649;28;124116;-81
2023/07/30 10:07:07;;;;;;;;;;;22.50;97.30;;;22.87;56.89;98510.16;4975080;28;124232;-81
2023/07/30 10:09:43;;;;;;;;;;;22.50;97.00;;;22.90;56.86;98517.78;4999268;28;109286;-81
2023/07/30 10:12:21;;;;;;;;;;;22.50;96.90;;;22.90;56.25;98538.31;5003003;28;109368;-82
2023/07/30 10:14:47;;;;;;;;;;;22.50;96.60;;;22.96;55.61;98526.66;4990414;28;124337;-82
2023/07/30 10:17:17;;;;;;;;;;;22.50;96.20;;;22.98;55.30;98532.72;4989835;28;122851;-81
2023/07/30 10:19:54;;;;;;;;;;;22.60;95.90;;;22.98;55.04;98546.81;4983272;28;108891;-82
2023/07/30 10:22:23;;;;;;;;;;;22.50;95.80;;;22.92;54.27;98524.63;4986467;28;108756;-82
2023/07/30 10:25:07;;;;;;;;;;;22.60;95.20;;;22.90;54.21;98524.22;4980945;28;124589;-81
2023/07/30 10:27:46;;;;;;;;;;;22.50;95.00;;;22.90;54.45;98521.41;4983326;28;124113;-82
2023/07/30 10:30:20;;;;;;;;;;;22.60;95.00;;;22.90;54.16;98529.84;4980367;28;110542;-82
2023/07/30 10:32:55;;;;;;;;;;;22.60;94.90;;;22.94;54.11;98527.88;4972785;28;108966;-81
2023/07/30 10:35:43;;;;;;;;;;;22.60;94.90;;;23.00;53.91;98522.66;4974850;28;124129;-82
2023/07/30 10:38:17;;;;;;;;;;;22.60;94.80;;;23.05;51.97;98527.06;4972165;28;127297;-81
2023/07/30 10:41:24;;;;;;;;;;;22.60;93.80;;;23.02;52.18;98522.25;4978364;28;108563;-82
2023/07/30 10:43:53;;;;;;;;;;;22.70;93.80;;;23.07;51.57;98516.19;4996755;28;109029;-82
2023/07/30 10:46:20;;;;;;;;;;;22.70;93.30;;;23.11;51.91;98531.09;4991923;28;124375;-82
2023/07/30 10:48:47;;;;;;;;;;;22.70;93.40;;;23.16;51.36;98530.72;4998063;28;123618;-82
2023/07/30 10:51:23;;;;;;;;;;;22.80;93.10;;;23.20;51.20;98519.41;4984700;28;111057;-82
2023/07/30 10:53:55;;;;;;;;;;;22.80;93.10;;;23.26;50.66;98527.06;4979243;28;108744;-81
2023/07/30 10:56:32;;;;;;;;;;;22.90;92.80;;;23.32;50.64;98516.16;5007244;28;124203;-81
2023/07/30 10:59:00;;;;;;;;;;;22.90;92.70;;;23.34;50.68;98523.00;4981911;28;123995;-81
2023/07/30 11:01:31;;;;;;;;;;;23.00;92.70;;;23.43;50.39;98524.59;4978504;28;109894;-81
2023/07/30 11:03:58;;;;;;;;;;;23.00;92.50;;;23.50;50.46;98511.31;5003421;28;108361;-81
2023/07/30 11:06:25;;;;;;;;;;;23.10;92.70;;;23.61;49.58;98531.03;4993494;28;124840;-81
2023/07/30 11:08:53;;;;;;;;;;;23.10;92.10;;;23.67;49.43;98532.22;4976070;28;123015;-80
2023/07/30 11:11:19;;;;;;;;;;;23.20;92.00;;;23.67;48.90;98529.41;4988048;28;109261;-81
2023/07/30 11:13:47;;;;;;;;;;;23.20;91.60;;;23.67;48.75;98540.69;4992351;28;109128;-81
2023/07/30 11:16:19;;;;;;;;;;;23.20;91.50;;;23.67;49.04;98523.78;4972837;28;124352;-81